createdAt,value
2019-02-17T00:01:42.250Z,35.35
2019-02-17T00:07:46.582Z,36.38
2019-02-17T00:13:50.820Z,35.95
2019-02-17T00:19:55.254Z,33.00
2019-02-17T00:25:59.581Z,34.98
2019-02-17T00:32:03.855Z,31.82
2019-02-17T00:38:08.175Z,34.50
2019-02-17T00:44:12.404Z,34.30
2019-02-17T00:50:16.656Z,32.57
2019-02-17T00:56:20.928Z,33.97
2019-02-17T01:02:25.260Z,32.73
2019-02-17T01:08:29.491Z,32.70
2019-02-17T01:14:33.773Z,29.30
2019-02-17T01:20:38.073Z,30.85
2019-02-17T01:26:42.313Z,31.33
2019-02-17T01:32:46.743Z,31.97
2019-02-17T01:38:51.031Z,31.83
2019-02-17T01:44:55.387Z,30.40
2019-02-17T01:50:59.610Z,32.47
2019-02-17T01:57:03.921Z,29.00
2019-02-17T02:03:08.163Z,30.20
2019-02-17T02:09:12.434Z,29.73
2019-02-17T02:15:16.642Z,31.47
2019-02-17T02:21:20.898Z,30.03
2019-02-17T02:27:25.187Z,30.97
2019-02-17T02:33:29.369Z,27.00
2019-02-17T02:39:33.569Z,28.57
2019-02-17T02:45:37.843Z,27.93
2019-02-17T02:51:42.052Z,28.70
2019-02-17T02:57:46.385Z,28.63
2019-02-17T03:03:50.664Z,28.57
2019-02-17T03:09:55.002Z,28.07
2019-02-17T03:15:59.214Z,30.13
2019-02-17T03:22:03.580Z,27.77
2019-02-17T03:28:07.826Z,29.90
2019-02-17T03:34:12.093Z,27.80
2019-02-17T03:40:16.295Z,28.77
2019-02-17T03:46:20.631Z,29.00
2019-02-17T03:52:24.843Z,27.93
2019-02-17T03:58:29.204Z,28.70
2019-02-17T04:04:33.499Z,29.10
2019-02-17T04:10:37.711Z,29.03
2019-02-17T04:16:41.897Z,28.17
2019-02-17T04:22:46.283Z,26.47
2019-02-17T04:28:50.583Z,27.97
2019-02-17T04:34:54.851Z,27.83
2019-02-17T04:40:59.064Z,26.40
2019-02-17T04:47:03.525Z,27.30
2019-02-17T04:53:07.705Z,26.73
2019-02-17T04:59:11.983Z,28.23
2019-02-17T05:05:16.266Z,27.90
2019-02-17T05:11:20.530Z,26.83
2019-02-17T05:17:24.823Z,26.53
2019-02-17T05:23:29.087Z,27.17
2019-02-17T05:29:33.396Z,30.23
2019-02-17T05:35:37.613Z,37.73
2019-02-17T05:41:41.839Z,82.90
2019-02-17T05:47:46.204Z,40.67
2019-02-17T05:53:50.402Z,31.13
2019-02-17T05:59:54.740Z,33.27
2019-02-17T06:05:59.018Z,43.93
2019-02-17T06:12:03.350Z,46.37
2019-02-17T06:18:07.557Z,51.93
2019-02-17T06:24:11.822Z,57.63
2019-02-17T06:30:16.056Z,80.90
2019-02-17T06:36:20.289Z,130.33
2019-02-17T06:42:24.568Z,38.30
2019-02-17T06:48:28.899Z,41.50
2019-02-17T06:54:33.225Z,46.90
2019-02-17T07:00:43.122Z,72.80
2019-02-17T07:06:52.679Z,61.70
2019-02-17T07:12:56.968Z,37.97
2019-02-17T07:19:01.256Z,25.20
2019-02-17T07:25:05.515Z,24.90
2019-02-17T07:31:09.815Z,24.93
2019-02-17T07:37:14.038Z,24.13
2019-02-17T07:43:18.281Z,23.40
2019-02-17T07:49:22.535Z,23.23
2019-02-17T07:55:26.717Z,22.33
2019-02-17T08:01:30.970Z,22.10
2019-02-17T08:07:35.290Z,21.57
2019-02-17T08:13:39.557Z,21.57
2019-02-17T08:19:43.799Z,22.13
2019-02-17T08:25:48.061Z,21.65
2019-02-17T08:31:55.966Z,20.23
2019-02-17T08:37:58.585Z,16.55
2019-02-17T08:44:02.810Z,23.47
2019-02-17T08:50:08.698Z,17.40
2019-02-17T08:56:13.002Z,20.25
2019-02-17T09:02:17.222Z,20.32
2019-02-17T09:08:21.518Z,20.85
2019-02-17T09:14:26.162Z,19.35
2019-02-17T09:20:30.358Z,17.70
2019-02-17T09:26:37.678Z,21.07
2019-02-17T09:32:41.964Z,15.98
2019-02-17T09:38:46.258Z,20.57
2019-02-17T09:44:50.538Z,12.37
2019-02-17T09:50:54.889Z,17.45
2019-02-17T09:56:59.085Z,18.48
2019-02-17T10:03:03.439Z,19.45
2019-02-17T10:09:07.772Z,18.70
2019-02-17T10:15:13.068Z,17.30
2019-02-17T10:21:17.292Z,18.30
2019-02-17T10:27:21.548Z,18.77
2019-02-17T10:33:25.835Z,19.27
2019-02-17T10:39:30.139Z,16.93
2019-02-17T10:45:34.463Z,17.35
2019-02-17T10:51:38.803Z,17.82
2019-02-17T10:57:43.295Z,14.53
2019-02-17T11:04:04.500Z,18.07
2019-02-17T11:10:10.783Z,15.50
2019-02-17T11:16:15.138Z,17.52
2019-02-17T11:22:23.100Z,15.30
2019-02-17T11:28:25.396Z,16.95
2019-02-17T11:34:29.712Z,14.68
2019-02-17T11:40:37.001Z,14.28
2019-02-17T11:46:41.326Z,13.10
2019-02-17T11:52:45.587Z,13.85
2019-02-17T11:58:50.012Z,16.52
2019-02-17T12:04:54.409Z,13.75
2019-02-17T12:10:58.646Z,11.83
2019-02-17T12:17:02.871Z,11.97
2019-02-17T12:23:11.453Z,11.60
2019-02-17T12:29:23.992Z,11.85
2019-02-17T12:35:28.422Z,13.10
2019-02-17T12:41:32.654Z,12.07
2019-02-17T12:47:36.908Z,12.68
2019-02-17T12:53:41.690Z,11.73
2019-02-17T12:59:45.943Z,11.12
2019-02-17T13:05:50.152Z,11.48
2019-02-17T13:11:54.380Z,10.25
2019-02-17T13:17:58.684Z,12.95
2019-02-17T13:24:03.131Z,11.30
2019-02-17T13:30:18.885Z,9.50
2019-02-17T13:36:23.490Z,14.90
2019-02-17T13:42:27.764Z,10.75
2019-02-17T13:48:32.129Z,12.00
2019-02-17T13:54:36.616Z,12.18
2019-02-17T14:00:40.886Z,11.97
2019-02-17T14:06:45.131Z,11.53
2019-02-17T14:12:49.443Z,9.85
2019-02-17T14:18:53.761Z,10.08
2019-02-17T14:24:58.277Z,13.55
2019-02-17T14:31:02.587Z,13.62
2019-02-17T14:37:06.951Z,11.88
2019-02-17T14:43:11.458Z,9.38
2019-02-17T14:49:15.761Z,10.98
2019-02-17T14:55:19.972Z,7.62
2019-02-17T15:01:24.195Z,9.00
2019-02-17T15:07:28.573Z,10.08
2019-02-17T15:13:32.868Z,9.08
2019-02-17T15:19:37.082Z,8.80
2019-02-17T15:25:41.297Z,7.87
2019-02-17T15:31:45.712Z,8.03
2019-02-17T15:37:50.012Z,9.28
2019-02-17T15:43:54.224Z,10.15
2019-02-17T15:49:58.431Z,8.43
2019-02-17T15:56:02.714Z,8.20
2019-02-17T16:02:07.032Z,8.10
2019-02-17T16:08:11.220Z,7.85
2019-02-17T16:14:15.500Z,9.50
2019-02-17T16:20:19.716Z,8.10
2019-02-17T16:26:23.974Z,8.15
2019-02-17T16:32:28.270Z,8.85
2019-02-17T16:38:32.501Z,9.15
2019-02-17T16:44:36.730Z,8.75
2019-02-17T16:50:41.200Z,9.23
2019-02-17T16:56:45.457Z,6.90
2019-02-17T17:02:49.793Z,10.88
2019-02-17T17:08:54.005Z,9.85
2019-02-17T17:14:58.220Z,9.25
2019-02-17T17:21:02.478Z,9.85
2019-02-17T17:27:06.722Z,11.10
2019-02-17T17:33:10.899Z,13.85
2019-02-17T17:39:15.288Z,12.23
2019-02-17T17:45:19.564Z,10.80
2019-02-17T17:51:23.877Z,9.38
2019-02-17T17:57:28.111Z,9.45
2019-02-17T18:03:32.451Z,10.82
2019-02-17T18:09:36.673Z,14.28
2019-02-17T18:15:40.977Z,12.13
2019-02-17T18:21:45.219Z,11.57
2019-02-17T18:27:49.472Z,14.00
2019-02-17T18:33:54.589Z,13.90
2019-02-17T18:39:59.021Z,12.93
2019-02-17T18:46:03.248Z,12.63
2019-02-17T18:52:07.613Z,13.58
2019-02-17T18:58:11.823Z,15.80
2019-02-17T19:04:16.217Z,14.75
2019-02-17T19:10:20.444Z,14.05
2019-02-17T19:16:24.671Z,13.90
2019-02-17T19:22:28.880Z,12.63
2019-02-17T19:28:33.228Z,17.05
2019-02-17T19:34:37.523Z,15.13
2019-02-17T19:40:41.914Z,17.30
2019-02-17T19:46:46.083Z,15.65
2019-02-17T19:52:50.398Z,15.35
2019-02-17T19:58:54.624Z,15.10
2019-02-17T20:05:12.111Z,14.18
2019-02-17T20:11:16.478Z,15.38
2019-02-17T20:17:20.764Z,15.50
2019-02-17T20:23:25.057Z,14.93
2019-02-17T20:29:29.326Z,17.15
2019-02-17T20:35:33.636Z,16.97
2019-02-17T20:41:37.920Z,18.23
2019-02-17T20:47:42.127Z,16.85
2019-02-17T20:53:46.320Z,16.62
2019-02-17T20:59:50.530Z,18.05
2019-02-17T21:05:55.520Z,18.48
2019-02-17T21:11:59.721Z,18.37
2019-02-17T21:18:03.940Z,18.25
2019-02-17T21:24:08.164Z,17.85
2019-02-17T21:30:12.571Z,18.45
2019-02-17T21:36:23.174Z,17.62
2019-02-17T21:42:23.505Z,18.07
2019-02-17T21:48:27.740Z,19.17
2019-02-17T21:54:32.037Z,17.87
2019-02-17T22:00:36.379Z,18.02
2019-02-17T22:06:40.559Z,19.17
2019-02-17T22:12:44.810Z,18.25
2019-02-17T22:18:49.013Z,19.80
2019-02-17T22:24:53.346Z,19.75
2019-02-17T22:30:57.543Z,18.70
2019-02-17T22:37:01.841Z,18.95
2019-02-17T22:43:06.134Z,18.82
2019-02-17T22:49:10.500Z,19.27
2019-02-17T22:55:14.912Z,21.95
2019-02-17T23:01:24.273Z,20.70
2019-02-17T23:07:28.650Z,19.87
2019-02-17T23:13:33.071Z,19.42
2019-02-17T23:19:37.361Z,19.65
2019-02-17T23:25:41.548Z,19.10
2019-02-17T23:31:45.799Z,19.70
2019-02-17T23:37:50.814Z,18.40
2019-02-17T23:43:55.012Z,19.10
2019-02-17T23:49:59.390Z,17.32
2019-02-17T23:56:03.579Z,17.45
